Time;durP1;ratioP1;P1;durP2;ratioP2;P2;SDS_P1;SDS_P2;PMS_P1;PMS_P2;Temp;Humidity;BMP_temperature;BMP_pressure;BME280_temperature;BME280_humidity;BME280_pressure;Samples;Min_cycle;Max_cycle;Signal;HPM_P1;HPM_P2
2022/01/21 00:01:59;;;;;;;1.83;1.40;;;21.10;61.20;;;;;;6232735;28;89106;-70
2022/01/21 00:05:03;;;;;;;1.45;1.30;;;21.10;61.20;;;;;;6231924;28;88431;-69
2022/01/21 00:08:05;;;;;;;1.70;1.20;;;21.10;61.10;;;;;;6224276;28;89133;-69
2022/01/21 00:11:07;;;;;;;1.30;1.15;;;21.10;61.10;;;;;;6231570;28;89036;-70
2022/01/21 00:14:10;;;;;;;1.30;1.20;;;21.10;61.10;;;;;;6231600;28;89984;-70
2022/01/21 00:17:12;;;;;;;1.63;1.20;;;21.00;61.10;;;;;;6232533;28;89132;-69
2022/01/21 00:30:15;;;;;;;1.40;1.25;;;21.00;61.20;;;;;;6231337;28;87610;-70
2022/01/21 00:33:17;;;;;;;1.52;1.30;;;20.90;61.10;;;;;;6225507;28;89158;-70
2022/01/21 00:36:21;;;;;;;1.45;1.10;;;20.90;61.20;;;;;;6221985;28;87251;-70
2022/01/21 00:39:26;;;;;;;1.80;1.20;;;20.90;61.20;;;;;;6206395;28;89277;-70
2022/01/21 00:42:46;;;;;;;2.13;1.17;;;20.90;62.10;;;;;;6224145;28;89043;-69
2022/01/21 00:45:49;;;;;;;1.50;1.25;;;20.90;61.20;;;;;;6231051;28;90037;-70
2022/01/21 00:48:51;;;;;;;1.65;1.10;;;20.90;61.20;;;;;;6231005;28;89131;-70
2022/01/21 00:51:54;;;;;;;1.48;1.17;;;20.90;61.30;;;;;;6230073;28;89070;-70
2022/01/21 00:54:56;;;;;;;1.20;1.00;;;20.90;61.30;;;;;;6225325;28;89091;-70
2022/01/21 00:57:58;;;;;;;1.77;1.27;;;20.90;61.30;;;;;;6235005;28;89131;-69
2022/01/21 01:01:00;;;;;;;1.75;1.30;;;20.90;61.20;;;;;;6239680;28;89429;-70
2022/01/21 01:04:20;;;;;;;1.58;1.15;;;20.90;61.30;;;;;;6238623;28;89282;-69
2022/01/21 01:07:24;;;;;;;2.08;1.33;;;20.90;61.20;;;;;;6239818;28;87288;-69
2022/01/21 01:10:39;;;;;;;2.55;1.30;;;20.90;61.20;;;;;;6234969;28;89055;-70
2022/01/21 01:20:20;;;;;;;1.30;1.13;;;20.90;61.40;;;;;;6232172;28;87294;-69
2022/01/21 01:23:28;;;;;;;1.70;1.15;;;20.80;61.40;;;;;;6237884;28;89026;-70
2022/01/21 01:29:55;;;;;;;2.28;1.25;;;20.80;61.40;;;;;;6180293;28;87695;-70
2022/01/21 01:32:59;;;;;;;1.30;1.00;;;20.70;61.40;;;;;;6224666;28;89085;-69
2022/01/21 01:36:01;;;;;;;1.40;1.00;;;20.80;61.40;;;;;;6227003;28;89116;-69
2022/01/21 01:39:12;;;;;;;1.50;1.30;;;20.70;61.40;;;;;;6227761;28;88320;-69
2022/01/21 01:42:42;;;;;;;1.55;1.10;;;20.70;61.40;;;;;;6227189;28;88900;-70
2022/01/21 01:52:20;;;;;;;1.15;1.00;;;20.70;61.50;;;;;;6239589;28;87229;-70
2022/01/21 01:55:24;;;;;;;1.45;1.08;;;20.70;61.50;;;;;;6237444;28;89438;-70
2022/01/21 01:58:44;;;;;;;1.23;1.00;;;20.70;61.40;;;;;;6229243;28;89108;-70
2022/01/21 02:01:52;;;;;;;1.38;1.10;;;20.70;61.40;;;;;;6234407;28;89092;-69
2022/01/21 02:04:54;;;;;;;1.48;1.10;;;20.80;61.40;;;;;;6233345;28;89635;-70
2022/01/21 02:07:55;;;;;;;1.23;1.10;;;20.70;62.30;;;;;;6234707;28;89448;-70
2022/01/21 02:10:59;;;;;;;1.40;1.00;;;20.70;61.40;;;;;;6234054;28;88231;-70
2022/01/21 02:14:07;;;;;;;1.90;1.08;;;20.70;61.40;;;;;;6221810;28;89135;-69
2022/01/21 02:21:27;;;;;;;1.40;0.95;;;20.70;61.40;;;;;;6233392;28;89098;-70
2022/01/21 02:24:03;;;;;;;1.10;1.00;;;20.70;61.50;;;;;;6231573;28;87233;-70
2022/01/21 02:27:05;;;;;;;1.20;1.05;;;20.60;61.50;;;;;;6228236;28;89200;-70
2022/01/21 02:30:09;;;;;;;1.58;1.10;;;20.60;61.60;;;;;;6221202;28;89060;-69
2022/01/21 02:33:11;;;;;;;1.38;1.00;;;20.60;61.60;;;;;;6234062;28;88996;-70
2022/01/21 02:36:13;;;;;;;1.63;1.15;;;20.60;61.50;;;;;;6232999;28;89337;-69
2022/01/21 02:39:17;;;;;;;1.33;0.90;;;20.60;61.50;;;;;;6218954;28;89033;-70
2022/01/21 02:42:19;;;;;;;1.20;1.10;;;20.60;61.70;;;;;;6232108;28;88336;-69
2022/01/21 02:45:21;;;;;;;1.10;1.00;;;20.50;61.50;;;;;;6221115;28;89100;-70
2022/01/21 02:48:24;;;;;;;1.65;1.17;;;20.50;61.60;;;;;;6231925;28;89034;-70
2022/01/21 02:51:26;;;;;;;2.08;1.10;;;20.50;61.60;;;;;;6230959;28;90028;-70
2022/01/21 02:54:30;;;;;;;1.67;0.95;;;20.50;61.60;;;;;;6234897;28;89114;-70
2022/01/21 02:57:32;;;;;;;0.90;0.80;;;20.60;61.70;;;;;;6207892;28;87927;-70
2022/01/21 03:00:34;;;;;;;0.90;0.80;;;20.50;61.60;;;;;;6212167;28;89278;-69
2022/01/21 03:03:36;;;;;;;1.10;1.00;;;20.60;61.60;;;;;;6232040;28;89159;-69
2022/01/21 03:06:38;;;;;;;1.20;0.93;;;20.50;61.50;;;;;;6233333;28;88260;-69
2022/01/21 03:09:42;;;;;;;1.27;1.02;;;20.50;61.50;;;;;;6233294;28;88968;-69
2022/01/21 03:12:44;;;;;;;2.13;1.20;;;20.50;61.50;;;;;;6218786;28;88710;-69
2022/01/21 03:15:46;;;;;;;1.13;0.90;;;20.50;61.60;;;;;;6221438;28;89263;-70
2022/01/21 03:18:48;;;;;;;1.30;1.05;;;20.50;61.60;;;;;;6230981;28;89444;-70
2022/01/21 03:21:50;;;;;;;1.48;1.00;;;20.50;61.60;;;;;;6231844;28;90020;-69
2022/01/21 03:24:53;;;;;;;1.27;0.90;;;20.40;61.60;;;;;;6207404;28;89096;-70
2022/01/21 03:27:55;;;;;;;1.33;1.00;;;20.40;61.60;;;;;;6233168;28;89078;-69
2022/01/21 03:30:57;;;;;;;1.30;0.90;;;20.40;61.60;;;;;;6231454;28;89083;-70
2022/01/21 03:34:00;;;;;;;1.20;0.93;;;20.40;61.60;;;;;;6219604;28;89058;-70
2022/01/21 03:37:02;;;;;;;1.17;1.08;;;20.40;61.70;;;;;;6233696;28;89079;-69
2022/01/21 03:40:06;;;;;;;1.40;1.10;;;20.40;61.70;;;;;;6220820;28;89098;-70
2022/01/21 03:43:10;;;;;;;1.52;1.05;;;20.40;61.70;;;;;;6230820;28;88418;-70
2022/01/21 03:46:12;;;;;;;1.95;1.08;;;20.40;61.70;;;;;;6224745;28;89509;-70
2022/01/21 03:49:14;;;;;;;1.15;0.85;;;20.30;61.70;;;;;;6224078;28;89434;-70
2022/01/21 03:52:16;;;;;;;0.95;0.80;;;20.40;61.70;;;;;;6214187;28;89981;-70
2022/01/21 03:55:19;;;;;;;1.83;1.10;;;20.40;61.70;;;;;;6219847;28;89094;-69
2022/01/21 03:58:22;;;;;;;1.63;1.15;;;20.40;61.70;;;;;;6227638;28;89374;-69
2022/01/21 04:01:24;;;;;;;1.08;0.98;;;20.40;61.60;;;;;;6230504;28;89192;-69
2022/01/21 04:04:26;;;;;;;1.05;0.88;;;20.40;61.70;;;;;;6229080;28;88908;-68
2022/01/21 04:07:28;;;;;;;0.85;0.77;;;20.40;61.60;;;;;;6223986;28;89149;-69
2022/01/21 04:10:35;;;;;;;1.40;0.98;;;20.40;61.70;;;;;;6231544;28;89118;-69
2022/01/21 04:13:37;;;;;;;1.17;1.00;;;20.30;61.60;;;;;;6219702;28;88497;-69
2022/01/21 04:16:39;;;;;;;1.00;0.80;;;20.30;61.70;;;;;;6220884;28;89299;-68
2022/01/21 04:19:41;;;;;;;1.70;1.10;;;20.30;61.70;;;;;;6217139;28;89029;-69
2022/01/21 04:22:43;;;;;;;1.13;0.88;;;20.30;61.70;;;;;;6231010;28;90041;-68
2022/01/21 04:25:48;;;;;;;1.10;0.90;;;20.30;61.80;;;;;;6231097;28;89494;-69
2022/01/21 04:28:50;;;;;;;1.02;0.90;;;20.30;61.80;;;;;;6218188;28;89111;-69
2022/01/21 04:31:52;;;;;;;1.60;1.10;;;20.30;61.80;;;;;;6230909;28;88037;-69
2022/01/21 04:34:54;;;;;;;1.00;0.90;;;20.30;61.80;;;;;;6230748;28;89092;-69
2022/01/21 04:37:59;;;;;;;1.13;0.80;;;20.30;61.90;;;;;;6230592;28;89079;-69
2022/01/21 04:41:18;;;;;;;1.65;0.98;;;20.20;61.70;;;;;;6216109;28;89349;-69
2022/01/21 04:47:40;;;;;;;1.20;0.80;;;20.20;61.90;;;;;;6229015;28;87135;-68
2022/01/21 04:50:53;;;;;;;1.40;0.90;;;20.20;61.90;;;;;;6216707;28;89143;-69
2022/01/21 04:53:55;;;;;;;1.13;0.80;;;20.30;61.90;;;;;;6220604;28;90106;-69
2022/01/21 04:56:59;;;;;;;1.30;0.80;;;20.20;61.70;;;;;;6223839;28;89143;-69
2022/01/21 05:00:01;;;;;;;1.25;0.90;;;20.30;61.90;;;;;;6211792;28;89233;-69
2022/01/21 05:03:03;;;;;;;1.50;0.98;;;20.30;61.80;;;;;;6211808;28;89128;-68
2022/01/21 05:06:06;;;;;;;1.50;1.00;;;20.20;61.70;;;;;;6210540;28;88510;-69
2022/01/21 05:09:08;;;;;;;0.98;0.80;;;20.20;61.80;;;;;;6218580;28;91013;-69
2022/01/21 05:12:17;;;;;;;1.25;0.90;;;20.20;61.80;;;;;;6224944;28;91417;-70
2022/01/21 05:15:26;;;;;;;1.67;1.05;;;20.20;61.90;;;;;;6229778;28;88361;-69
2022/01/21 05:18:28;;;;;;;1.10;1.00;;;20.10;61.90;;;;;;6230218;28;89048;-70
2022/01/21 05:21:30;;;;;;;0.77;0.73;;;20.10;61.80;;;;;;6229379;28;89114;-69
2022/01/21 05:24:32;;;;;;;1.33;0.85;;;20.10;61.90;;;;;;6230608;28;89992;-69
2022/01/21 05:27:35;;;;;;;1.38;0.88;;;20.10;62.00;;;;;;6231192;28;89037;-69
2022/01/21 05:30:37;;;;;;;1.20;1.00;;;20.10;62.00;;;;;;6230075;28;89077;-68
2022/01/21 05:33:39;;;;;;;1.17;0.95;;;20.10;61.90;;;;;;6228551;28;89081;-69
2022/01/21 05:36:42;;;;;;;1.25;0.93;;;20.10;61.90;;;;;;6229991;28;89142;-69
2022/01/21 05:39:45;;;;;;;1.17;1.08;;;20.10;61.90;;;;;;6231638;28;89108;-69
2022/01/21 05:42:49;;;;;;;1.92;1.10;;;20.10;62.10;;;;;;6230697;28;88288;-69
2022/01/21 05:49:11;;;;;;;1.05;0.95;;;20.10;62.00;;;;;;6233673;28;87356;-69
2022/01/21 05:52:19;;;;;;;1.20;0.95;;;20.10;62.00;;;;;;6226558;28;89155;-67
2022/01/21 05:55:21;;;;;;;1.25;1.00;;;20.10;61.90;;;;;;6231965;28;90030;-69
2022/01/21 05:58:24;;;;;;;1.10;1.00;;;20.10;61.90;;;;;;6221354;28;89182;-69
2022/01/21 06:01:26;;;;;;;1.10;0.98;;;20.10;61.90;;;;;;6236087;28;89006;-69
2022/01/21 06:04:28;;;;;;;1.70;1.10;;;20.10;61.90;;;;;;6233181;28;89082;-69
2022/01/21 06:07:30;;;;;;;1.73;1.00;;;20.10;61.90;;;;;;6231800;28;89093;-69
2022/01/21 06:10:51;;;;;;;1.85;1.08;;;20.10;61.90;;;;;;6221552;28;89114;-69
2022/01/21 06:13:54;;;;;;;1.02;0.90;;;20.00;61.90;;;;;;6221689;28;89010;-69
2022/01/21 06:16:56;;;;;;;1.67;1.20;;;20.00;62.00;;;;;;6223941;28;88253;-69
2022/01/21 06:19:58;;;;;;;1.45;1.02;;;20.00;62.00;;;;;;6234625;28;89121;-70
2022/01/21 06:23:00;;;;;;;1.10;1.00;;;20.00;62.00;;;;;;6235053;28;89024;-69
2022/01/21 06:26:02;;;;;;;1.67;1.02;;;20.00;62.00;;;;;;6233360;28;89842;-69
2022/01/21 06:29:06;;;;;;;1.13;1.02;;;20.00;62.00;;;;;;6233721;28;89245;-69
2022/01/21 06:32:08;;;;;;;1.40;1.00;;;20.00;62.10;;;;;;6232490;28;89396;-69
2022/01/21 06:35:11;;;;;;;2.03;1.30;;;20.00;62.10;;;;;;6223502;28;88982;-69
2022/01/21 06:38:13;;;;;;;1.83;1.27;;;19.90;62.10;;;;;;6227735;28;89032;-69
2022/01/21 06:41:16;;;;;;;1.48;1.00;;;19.90;62.00;;;;;;6232996;28;89167;-70
2022/01/21 06:44:20;;;;;;;1.50;1.20;;;19.90;62.10;;;;;;6217707;28;89462;-69
2022/01/21 06:47:22;;;;;;;1.20;1.10;;;19.90;62.10;;;;;;6210253;28;88386;-69
2022/01/21 06:50:25;;;;;;;2.50;1.30;;;20.00;62.00;;;;;;6235053;28;88788;-68
2022/01/21 06:53:27;;;;;;;1.67;1.30;;;20.00;61.90;;;;;;6230252;28;89183;-69
2022/01/21 06:56:30;;;;;;;1.70;1.40;;;20.00;61.90;;;;;;6232009;28;90040;-70
2022/01/21 06:59:34;;;;;;;1.85;1.20;;;20.00;61.70;;;;;;6232611;28;89051;-70
2022/01/21 07:02:36;;;;;;;1.45;1.20;;;19.90;61.60;;;;;;6220516;28;87978;-69
2022/01/21 07:05:38;;;;;;;1.58;1.20;;;20.00;61.60;;;;;;6232930;28;89493;-69
2022/01/21 07:08:40;;;;;;;1.48;1.17;;;20.00;61.40;;;;;;6234600;28;89355;-69
2022/01/21 07:11:42;;;;;;;2.00;1.10;;;20.00;61.50;;;;;;6232874;28;89121;-69
2022/01/21 07:14:45;;;;;;;1.63;1.00;;;20.00;61.40;;;;;;6234595;28;89103;-69
2022/01/21 07:17:49;;;;;;;1.58;1.10;;;20.00;61.40;;;;;;6233372;28;88744;-68
2022/01/21 07:20:51;;;;;;;2.40;1.30;;;20.00;61.30;;;;;;6233486;28;89119;-69
2022/01/21 07:23:53;;;;;;;1.80;1.20;;;20.10;61.40;;;;;;6225057;28;89043;-70
2022/01/21 07:26:55;;;;;;;3.05;1.38;;;20.10;61.30;;;;;;6226134;28;89828;-69
2022/01/21 07:29:59;;;;;;;1.40;1.20;;;20.10;61.30;;;;;;6228849;28;89153;-69
2022/01/21 07:33:00;;;;;;;1.60;1.42;;;20.10;61.30;;;;;;6223099;28;89111;-69
2022/01/21 07:36:03;;;;;;;1.52;1.33;;;20.10;61.20;;;;;;6224222;28;89077;-69
2022/01/21 07:39:06;;;;;;;1.40;1.00;;;20.10;61.20;;;;;;6220723;28;89116;-70
2022/01/21 07:42:08;;;;;;;1.80;1.30;;;20.10;61.20;;;;;;6221361;28;89102;-70
2022/01/21 07:45:11;;;;;;;2.05;1.10;;;20.20;61.20;;;;;;6219059;28;89326;-69
2022/01/21 07:48:13;;;;;;;1.98;1.30;;;20.20;61.10;;;;;;6228941;28;88645;-69
2022/01/21 07:51:15;;;;;;;2.15;1.30;;;20.20;61.10;;;;;;6230427;28;88006;-69
2022/01/21 07:54:18;;;;;;;1.83;1.30;;;20.20;61.10;;;;;;6231598;28;89057;-69
2022/01/21 07:57:20;;;;;;;1.60;1.20;;;20.30;61.10;;;;;;6219960;28;90045;-69
2022/01/21 08:00:24;;;;;;;1.60;1.10;;;20.30;61.00;;;;;;6217816;28;89081;-69
2022/01/21 08:03:26;;;;;;;1.77;1.08;;;20.30;60.90;;;;;;6219644;28;89141;-68
2022/01/21 08:06:29;;;;;;;1.80;1.30;;;20.30;60.90;;;;;;6223587;28;89081;-69
2022/01/21 08:09:31;;;;;;;1.10;0.95;;;20.40;60.90;;;;;;6224431;28;89042;-70
2022/01/21 08:12:33;;;;;;;1.33;1.00;;;20.40;60.90;;;;;;6232977;28;89156;-69
2022/01/21 08:15:36;;;;;;;2.00;1.15;;;20.40;60.90;;;;;;6218466;28;89124;-68
2022/01/21 08:18:38;;;;;;;1.92;1.30;;;20.50;60.90;;;;;;6218079;28;88357;-69
2022/01/21 08:21:41;;;;;;;1.85;1.30;;;20.50;60.70;;;;;;6230951;28;89045;-70
2022/01/21 08:24:43;;;;;;;1.52;1.20;;;20.60;60.70;;;;;;6219330;28;88110;-69
2022/01/21 08:27:45;;;;;;;1.77;1.20;;;20.60;60.70;;;;;;6229917;28;90299;-70
2022/01/21 08:30:48;;;;;;;1.85;1.20;;;20.60;60.60;;;;;;6218591;28;89116;-70
2022/01/21 08:37:10;;;;;;;1.88;1.20;;;20.80;60.60;;;;;;6231873;28;87300;-68
2022/01/21 08:40:13;;;;;;;1.65;1.10;;;20.80;60.50;;;;;;6229932;28;89087;-70
2022/01/21 08:43:15;;;;;;;1.35;1.10;;;20.80;60.50;;;;;;6219080;28;89105;-69
2022/01/21 08:46:19;;;;;;;1.40;1.10;;;20.80;60.40;;;;;;6229757;28;89067;-69
2022/01/21 08:49:21;;;;;;;1.75;1.00;;;20.90;60.50;;;;;;6219654;28;88502;-69
2022/01/21 08:52:26;;;;;;;1.33;1.00;;;20.90;60.50;;;;;;6231716;28;89162;-69
2022/01/21 08:55:28;;;;;;;1.52;1.13;;;20.90;61.30;;;;;;6230011;28;88131;-69
2022/01/21 08:58:31;;;;;;;1.85;1.20;;;21.00;60.40;;;;;;6216665;28;90078;-69
2022/01/21 09:01:34;;;;;;;2.28;1.25;;;21.00;60.40;;;;;;6229435;28;88972;-69
2022/01/21 09:04:36;;;;;;;1.77;1.15;;;21.00;60.30;;;;;;6212957;28;89105;-69
2022/01/21 09:07:38;;;;;;;1.50;1.10;;;21.10;60.40;;;;;;6218538;28;89075;-70
2022/01/21 09:10:40;;;;;;;1.95;1.15;;;21.10;60.30;;;;;;6223556;28;89068;-69
2022/01/21 09:13:42;;;;;;;1.60;1.20;;;21.20;60.40;;;;;;6229286;28;87958;-68
2022/01/21 09:16:46;;;;;;;1.73;1.13;;;21.20;60.20;;;;;;6232666;28;89070;-68
2022/01/21 09:19:48;;;;;;;1.42;1.15;;;21.20;60.30;;;;;;6234649;28;88610;-69
2022/01/21 09:22:50;;;;;;;1.75;1.20;;;21.20;60.20;;;;;;6235361;28;89085;-70
2022/01/21 09:25:52;;;;;;;1.77;1.38;;;21.20;60.20;;;;;;6235932;28;89320;-69
2022/01/21 09:28:54;;;;;;;1.80;1.10;;;21.30;60.20;;;;;;6233647;28;90085;-68
2022/01/21 09:31:58;;;;;;;1.63;1.20;;;21.30;60.20;;;;;;6235878;28;89085;-69
2022/01/21 09:35:00;;;;;;;1.50;1.05;;;21.30;61.10;;;;;;6230025;28;89136;-69
2022/01/21 09:38:02;;;;;;;1.52;1.10;;;21.30;60.10;;;;;;6229225;28;89079;-68
2022/01/21 09:41:06;;;;;;;1.65;1.10;;;21.40;60.10;;;;;;6223883;28;89304;-68
2022/01/21 09:44:11;;;;;;;1.50;1.10;;;21.40;60.10;;;;;;6234602;28;87971;-68
2022/01/21 09:47:19;;;;;;;1.58;1.20;;;21.40;60.10;;;;;;6234200;28;89168;-69
2022/01/21 09:50:23;;;;;;;1.33;0.98;;;21.40;60.10;;;;;;6223081;28;88231;-69
2022/01/21 09:53:28;;;;;;;1.67;1.00;;;21.50;60.10;;;;;;6227110;28;89087;-68
2022/01/21 09:56:31;;;;;;;1.70;1.13;;;21.50;60.10;;;;;;6233376;28;89044;-69
2022/01/21 09:59:36;;;;;;;1.25;1.10;;;21.50;60.10;;;;;;6235373;28;90005;-69
2022/01/21 10:02:41;;;;;;;1.92;1.10;;;21.50;60.00;;;;;;6235227;28;89362;-68
2022/01/21 10:05:47;;;;;;;2.00;1.30;;;21.60;60.10;;;;;;6235924;28;87985;-68
2022/01/21 10:08:51;;;;;;;1.98;1.20;;;21.60;60.10;;;;;;6222872;28;89599;-69
2022/01/21 10:11:56;;;;;;;1.67;1.20;;;21.60;60.00;;;;;;6221839;28;89381;-69
2022/01/21 10:14:57;;;;;;;1.67;1.02;;;21.60;60.00;;;;;;6222586;28;89091;-68
2022/01/21 10:18:06;;;;;;;1.40;1.10;;;21.60;60.00;;;;;;6232708;28;89037;-68
2022/01/21 10:21:12;;;;;;;2.05;1.42;;;21.70;60.00;;;;;;6234418;28;88368;-69
2022/01/21 10:24:16;;;;;;;1.48;1.10;;;21.60;59.90;;;;;;6225275;28;89145;-69
2022/01/21 10:27:24;;;;;;;1.48;1.25;;;21.60;59.90;;;;;;6215430;28;89089;-68
2022/01/21 10:30:28;;;;;;;1.20;1.10;;;21.70;59.90;;;;;;6233431;28;90012;-69
2022/01/21 10:33:31;;;;;;;1.48;1.08;;;21.70;59.80;;;;;;6233662;28;89417;-68
2022/01/21 10:36:35;;;;;;;1.45;1.08;;;21.70;59.80;;;;;;6232959;28;89085;-69
2022/01/21 10:39:59;;;;;;;1.60;1.20;;;21.70;59.80;;;;;;6220330;28;89282;-68
2022/01/21 10:43:12;;;;;;;1.65;1.10;;;21.70;59.80;;;;;;6232814;28;89170;-68
2022/01/21 10:46:17;;;;;;;1.30;1.02;;;21.70;59.80;;;;;;6232711;28;88564;-69
2022/01/21 10:49:21;;;;;;;1.80;1.13;;;21.70;59.80;;;;;;6221549;28;89128;-68
2022/01/21 10:52:31;;;;;;;1.40;1.15;;;21.70;59.70;;;;;;6217208;28;87262;-68
2022/01/21 10:55:35;;;;;;;1.55;1.15;;;21.70;59.70;;;;;;6231605;28;89049;-69
2022/01/21 10:59:00;;;;;;;1.45;1.15;;;21.80;59.70;;;;;;6235132;28;89096;-68
2022/01/21 11:02:02;;;;;;;2.05;1.10;;;21.80;59.70;;;;;;6231813;28;90175;-68
2022/01/21 11:05:11;;;;;;;2.05;1.10;;;21.80;59.60;;;;;;6232983;28;89350;-68
2022/01/21 11:08:14;;;;;;;2.13;1.10;;;21.80;59.60;;;;;;6233090;28;89120;-68
2022/01/21 11:11:23;;;;;;;1.30;1.20;;;21.80;59.60;;;;;;6232645;28;89083;-68
2022/01/21 11:14:25;;;;;;;1.67;1.17;;;21.80;59.40;;;;;;6226368;28;88984;-68
2022/01/21 11:17:27;;;;;;;1.88;1.45;;;21.80;59.40;;;;;;6227872;28;89390;-69
2022/01/21 11:20:37;;;;;;;1.48;1.20;;;21.80;59.30;;;;;;6228338;28;88010;-69
2022/01/21 11:23:39;;;;;;;1.63;1.10;;;21.80;59.30;;;;;;6232828;28;88410;-69
2022/01/21 11:26:42;;;;;;;1.20;0.82;;;21.90;59.30;;;;;;6230768;28;87957;-69
2022/01/21 11:29:47;;;;;;;2.03;1.23;;;21.90;59.40;;;;;;6234514;28;89063;-68
2022/01/21 11:32:49;;;;;;;1.70;1.27;;;21.90;59.40;;;;;;6218435;28;90097;-69
2022/01/21 11:35:53;;;;;;;1.65;1.20;;;21.90;59.40;;;;;;6213913;28;89068;-68
2022/01/21 11:38:58;;;;;;;1.70;1.10;;;21.90;59.40;;;;;;6221749;28;89088;-69
2022/01/21 11:42:02;;;;;;;1.40;1.20;;;21.90;59.40;;;;;;6232171;28;89298;-68
2022/01/21 11:45:18;;;;;;;1.08;0.90;;;21.90;59.40;;;;;;6232289;28;89039;-68
2022/01/21 11:51:48;;;;;;;1.65;1.10;;;21.90;59.40;;;;;;6233137;28;87974;-68
2022/01/21 11:54:50;;;;;;;1.67;1.10;;;21.90;59.50;;;;;;6226992;28;88378;-69
2022/01/21 11:58:11;;;;;;;1.35;0.98;;;21.90;59.40;;;;;;6221173;28;89102;-67
2022/01/21 12:01:34;;;;;;;1.58;1.17;;;21.90;59.50;;;;;;6223703;28;90420;-68
2022/01/21 12:04:44;;;;;;;1.42;1.10;;;22.00;59.60;;;;;;6232851;28;90353;-68
2022/01/21 12:07:50;;;;;;;1.00;0.90;;;22.00;59.50;;;;;;6231954;28;89276;-68
2022/01/21 12:10:52;;;;;;;1.30;1.05;;;21.90;59.40;;;;;;6228294;28;87870;-69
2022/01/21 12:13:54;;;;;;;1.13;0.90;;;22.00;59.50;;;;;;6223191;28;89050;-69
2022/01/21 12:17:01;;;;;;;1.10;1.00;;;22.00;59.50;;;;;;6228644;28;89021;-68
2022/01/21 12:20:06;;;;;;;1.70;1.10;;;22.00;59.50;;;;;;6216237;28;88912;-68
2022/01/21 12:23:15;;;;;;;1.70;1.20;;;22.00;59.50;;;;;;6207038;28;89547;-69
2022/01/21 12:26:17;;;;;;;1.65;1.00;;;22.00;59.50;;;;;;6207564;28;88443;-70
2022/01/21 12:29:24;;;;;;;1.80;1.10;;;22.00;59.50;;;;;;6229340;28;87827;-68
2022/01/21 12:32:51;;;;;;;1.60;1.10;;;22.00;59.50;;;;;;6209516;28;88330;-69
2022/01/21 12:35:56;;;;;;;1.40;0.90;;;22.00;59.50;;;;;;6221421;28;90096;-69
2022/01/21 12:39:09;;;;;;;1.15;0.90;;;22.00;59.60;;;;;;6230696;28;89216;-69
2022/01/21 12:42:25;;;;;;;1.20;1.10;;;22.00;59.50;;;;;;6218446;28;90033;-69
2022/01/21 12:45:27;;;;;;;2.05;1.10;;;22.00;59.50;;;;;;6230459;28;89105;-69
2022/01/21 12:48:33;;;;;;;1.80;1.00;;;22.00;59.50;;;;;;6219608;28;87978;-69
2022/01/21 12:51:56;;;;;;;1.20;0.93;;;22.00;59.50;;;;;;6227942;28;89017;-69
2022/01/21 12:58:20;;;;;;;1.10;0.90;;;22.00;59.50;;;;;;6225815;28;86754;-69
2022/01/21 13:01:22;;;;;;;1.40;0.93;;;22.00;59.40;;;;;;6223160;28;89013;-69
2022/01/21 13:04:42;;;;;;;1.55;1.00;;;22.10;59.40;;;;;;6227867;28;88244;-69
2022/01/21 13:07:52;;;;;;;1.17;1.05;;;22.10;59.40;;;;;;6219325;28;89876;-69
2022/01/21 13:10:57;;;;;;;1.42;1.00;;;22.10;59.40;;;;;;6211026;28;89083;-69
2022/01/21 13:14:22;;;;;;;1.92;1.00;;;22.10;59.40;;;;;;6217981;28;89170;-68
2022/01/21 13:17:24;;;;;;;1.42;1.00;;;22.10;59.40;;;;;;6230039;28;87852;-69
2022/01/21 13:20:30;;;;;;;1.85;1.00;;;22.10;59.40;;;;;;6228700;28;89389;-69
2022/01/21 13:23:37;;;;;;;1.58;1.10;;;22.10;59.40;;;;;;6231309;28;89157;-67
2022/01/21 13:26:43;;;;;;;1.65;0.95;;;22.10;59.40;;;;;;6231684;28;87958;-68
2022/01/21 13:29:46;;;;;;;1.13;1.00;;;22.10;59.30;;;;;;6231844;28;88428;-68
2022/01/21 13:32:57;;;;;;;1.00;0.90;;;22.10;59.40;;;;;;6230016;28;89093;-69
2022/01/21 13:36:00;;;;;;;1.35;1.10;;;22.10;59.40;;;;;;6229254;28;87966;-69
2022/01/21 13:39:08;;;;;;;1.23;1.10;;;22.10;59.40;;;;;;6229788;28;90096;-69
2022/01/21 13:42:15;;;;;;;1.85;1.17;;;22.10;59.30;;;;;;6230741;28;87764;-70
2022/01/21 13:45:17;;;;;;;1.65;1.13;;;22.10;59.30;;;;;;6220879;28;89303;-69
2022/01/21 13:48:20;;;;;;;1.17;0.95;;;22.10;59.30;;;;;;6228850;28;89316;-69
2022/01/21 13:51:22;;;;;;;1.17;0.90;;;22.10;59.30;;;;;;6231218;28;89038;-69
2022/01/21 13:54:36;;;;;;;1.45;1.13;;;22.20;59.30;;;;;;6229172;28;89426;-67
2022/01/21 13:57:46;;;;;;;1.92;1.10;;;22.10;59.20;;;;;;6230227;28;87990;-69
2022/01/21 14:00:49;;;;;;;1.30;1.02;;;22.20;59.30;;;;;;6218672;28;88435;-69
2022/01/21 14:03:53;;;;;;;2.20;1.00;;;22.10;59.20;;;;;;6232986;28;89087;-69
2022/01/21 14:06:55;;;;;;;1.08;0.98;;;22.20;59.30;;;;;;6219723;28;89031;-69
2022/01/21 14:09:58;;;;;;;1.58;1.05;;;22.20;59.20;;;;;;6219882;28;90068;-69
2022/01/21 14:13:02;;;;;;;1.48;1.08;;;22.20;59.20;;;;;;6213384;28;89140;-69
2022/01/21 14:16:08;;;;;;;1.38;1.05;;;22.20;59.20;;;;;;6217275;28;88975;-69
2022/01/21 14:19:17;;;;;;;1.17;0.82;;;22.20;59.20;;;;;;6234075;28;89178;-70
2022/01/21 14:22:20;;;;;;;1.67;1.10;;;22.20;59.20;;;;;;6234526;28;89242;-70
2022/01/21 14:25:22;;;;;;;1.45;1.08;;;22.10;59.20;;;;;;6220167;28;89266;-70
2022/01/21 14:28:41;;;;;;;1.60;1.05;;;22.20;59.20;;;;;;6235210;28;89035;-68
2022/01/21 14:31:45;;;;;;;1.33;1.10;;;22.10;59.20;;;;;;6233743;28;88302;-69
2022/01/21 14:34:48;;;;;;;1.52;1.00;;;22.20;59.30;;;;;;6232072;28;89053;-69
2022/01/21 14:37:52;;;;;;;2.00;1.20;;;22.20;59.30;;;;;;6219635;28;88258;-69
2022/01/21 14:40:59;;;;;;;1.52;1.08;;;22.20;59.40;;;;;;6221542;28;89963;-70
2022/01/21 14:44:02;;;;;;;1.52;1.00;;;22.20;59.40;;;;;;6222480;28;87908;-69
2022/01/21 14:47:12;;;;;;;1.30;1.00;;;22.10;59.30;;;;;;6234067;28;89195;-70
2022/01/21 14:50:17;;;;;;;1.52;1.05;;;22.10;59.30;;;;;;6208568;28;88969;-69
2022/01/21 14:53:19;;;;;;;1.48;1.00;;;22.10;59.30;;;;;;6233548;28;89173;-68
2022/01/21 14:56:24;;;;;;;1.23;1.02;;;22.20;59.30;;;;;;6229806;28;89091;-68
2022/01/21 14:59:28;;;;;;;1.02;0.90;;;22.20;59.40;;;;;;6226742;28;89089;-67
2022/01/21 15:02:32;;;;;;;1.48;1.17;;;22.20;59.40;;;;;;6218236;28;88360;-69
2022/01/21 15:05:34;;;;;;;1.30;1.10;;;22.20;59.40;;;;;;6223504;28;89049;-69
2022/01/21 15:08:40;;;;;;;1.33;0.90;;;22.20;59.30;;;;;;6220864;28;87774;-69
2022/01/21 15:11:58;;;;;;;1.27;0.98;;;22.20;59.30;;;;;;6219063;28;90091;-69
2022/01/21 15:15:00;;;;;;;1.67;1.00;;;22.20;59.30;;;;;;6220469;28;89221;-69
2022/01/21 15:18:03;;;;;;;1.33;1.00;;;22.20;59.30;;;;;;6217887;28;88772;-69
2022/01/21 15:21:14;;;;;;;1.00;0.90;;;22.20;59.30;;;;;;6230556;28;89368;-69
2022/01/21 15:24:16;;;;;;;0.80;0.77;;;22.20;59.30;;;;;;6223617;28;89144;-69
2022/01/21 15:27:19;;;;;;;1.70;1.13;;;22.20;59.20;;;;;;6220387;28;87715;-69
2022/01/21 15:30:25;;;;;;;1.38;1.00;;;22.30;59.30;;;;;;6225297;28;88975;-70
2022/01/21 15:33:27;;;;;;;1.25;1.00;;;22.30;59.30;;;;;;6232821;28;88385;-69
2022/01/21 15:36:29;;;;;;;1.60;1.10;;;22.20;59.20;;;;;;6227995;28;89056;-69
2022/01/21 15:39:33;;;;;;;1.80;1.17;;;22.20;59.20;;;;;;6220411;28;89521;-70
2022/01/21 15:42:35;;;;;;;1.30;0.80;;;22.20;59.30;;;;;;6209224;28;91253;-69
2022/01/21 15:45:38;;;;;;;1.45;1.00;;;22.20;59.20;;;;;;6232814;28;89338;-68
2022/01/21 15:48:40;;;;;;;1.38;0.90;;;22.30;59.30;;;;;;6232461;28;89079;-70
2022/01/21 15:51:42;;;;;;;1.20;0.98;;;22.30;59.30;;;;;;6221165;28;89126;-70
2022/01/21 15:54:44;;;;;;;1.40;1.00;;;22.30;59.30;;;;;;6226728;28;87937;-69
2022/01/21 15:57:46;;;;;;;1.35;1.10;;;22.30;59.30;;;;;;6231354;28;89137;-70
2022/01/21 16:00:50;;;;;;;1.83;1.10;;;22.20;59.20;;;;;;6233693;28;88016;-70
2022/01/21 16:03:54;;;;;;;1.55;1.20;;;22.30;59.30;;;;;;6232405;28;88362;-69
2022/01/21 16:06:56;;;;;;;1.65;1.10;;;22.30;59.20;;;;;;6220679;28;89182;-70
2022/01/21 16:09:58;;;;;;;1.15;1.00;;;22.30;59.20;;;;;;6232155;28;89206;-69
2022/01/21 16:13:00;;;;;;;1.00;0.90;;;22.30;59.30;;;;;;6231102;28;90191;-69
2022/01/21 16:16:05;;;;;;;1.25;1.02;;;22.30;59.30;;;;;;6233877;28;89226;-69
2022/01/21 16:19:09;;;;;;;1.00;0.90;;;22.30;59.20;;;;;;6216966;28;89039;-69
2022/01/21 16:22:11;;;;;;;1.10;0.90;;;22.30;59.20;;;;;;6226945;28;89283;-69
2022/01/21 16:25:13;;;;;;;1.67;1.02;;;22.30;59.30;;;;;;6222604;28;88181;-69
2022/01/21 16:28:15;;;;;;;1.60;1.20;;;22.30;59.30;;;;;;6230516;28;88996;-69
2022/01/21 16:31:18;;;;;;;1.48;1.02;;;22.30;59.40;;;;;;6231333;28;88992;-69
2022/01/21 16:34:21;;;;;;;1.17;1.00;;;22.30;59.40;;;;;;6233899;28;88302;-69
2022/01/21 16:37:23;;;;;;;2.45;1.10;;;22.30;59.30;;;;;;6213591;28;89427;-69
2022/01/21 16:40:25;;;;;;;1.73;1.00;;;22.30;59.40;;;;;;6229526;28;89077;-69
2022/01/21 16:43:27;;;;;;;1.33;1.20;;;22.30;59.40;;;;;;6222534;28;90003;-69
2022/01/21 16:46:31;;;;;;;1.52;1.00;;;22.30;59.40;;;;;;6221537;28;89415;-69
2022/01/21 16:49:33;;;;;;;1.45;1.00;;;22.30;59.30;;;;;;6219322;28;89104;-69